< < Back
Terminal Aerodrome Forecast


Current Version              Previous Versions:   1  2  3  4  5  6  7  8  9  

Terminal Aerodrome Forecast

518
FTUS42 KCAE 260200 AAB
TAFCAE
TAF AMD
KCAE 260257Z 2603/2624 VRB05KT 5SM -RA BR SCT008 OVC025
      TEMPO 2603/2605 3SM -RA BR BKN008
     FM260500 35008KT 3SM -RA BR OVC007
     FM261400 31012G15KT 5SM -RA BR OVC015
     FM261700 30012G19KT P6SM OVC040=



Latest METAR

026
SAUS80 KWBC 260500
MTRCAE
METAR KCAE 260456Z 34005KT 3SM RA BR SCT006 BKN039 OVC046 14/13 A2995
RMK AO2 SLP142 P0010 T01390128 401720139


USA.gov is the U.S. government's official web portal to all federal, state and local government web resources and services.